Time;durP1;ratioP1;P1;durP2;ratioP2;P2;SDS_P1;SDS_P2;PMS_P1;PMS_P2;Temp;Humidity;BMP_temperature;BMP_pressure;BME280_temperature;BME280_humidity;BME280_pressure;Samples;Min_cycle;Max_cycle;Signal;HPM_P1;HPM_P2
2021/06/27 00:01:53;;;;;;;9.50;8.60;;;;;;;14.77;77.30;99054.56;2293340;77;21341;-79
2021/06/27 00:04:55;;;;;;;10.95;9.95;;;;;;;14.71;77.11;99063.73;2299423;77;20977;-80
2021/06/27 00:07:56;;;;;;;10.18;9.28;;;;;;;14.69;77.26;99067.69;2299260;77;21319;-79
2021/06/27 00:10:58;;;;;;;10.80;9.70;;;;;;;14.71;77.49;99061.11;2293337;77;20935;-79
2021/06/27 00:13:59;;;;;;;11.63;10.53;;;;;;;14.68;77.20;99061.99;2291845;78;20894;-79
2021/06/27 00:17:00;;;;;;;12.00;10.98;;;;;;;14.61;77.11;99059.81;2291963;78;20932;-78
2021/06/27 00:20:01;;;;;;;11.33;10.13;;;;;;;14.54;77.30;99054.56;2291659;78;21304;-80
2021/06/27 00:23:02;;;;;;;11.38;10.38;;;;;;;14.49;77.27;99056.31;2263234;78;20952;-79
2021/06/27 00:26:03;;;;;;;10.65;9.63;;;;;;;14.44;77.54;99060.26;2249825;79;20960;-79
2021/06/27 00:29:04;;;;;;;10.32;9.03;;;;;;;14.41;77.56;99066.80;2250044;79;20987;-79
2021/06/27 00:32:05;;;;;;;12.70;10.35;;;;;;;14.40;77.37;99072.05;2249862;79;21035;-79
2021/06/27 00:35:06;;;;;;;10.53;9.58;;;;;;;14.41;77.85;99061.98;2249980;79;20888;-80
2021/06/27 00:38:07;;;;;;;12.23;10.28;;;;;;;14.37;77.38;99062.41;2249870;79;20953;-80
2021/06/27 00:41:08;;;;;;;11.38;10.28;;;;;;;14.32;77.61;99064.16;2250077;79;20912;-80
2021/06/27 00:44:08;;;;;;;10.15;9.10;;;;;;;14.28;77.53;99063.29;2250096;79;20908;-79
2021/06/27 00:47:09;;;;;;;10.28;9.23;;;;;;;14.24;77.57;99065.91;2250217;79;20924;-79
2021/06/27 00:50:11;;;;;;;11.03;10.03;;;;;;;14.20;77.64;99073.34;2250419;79;21379;-80
2021/06/27 00:53:12;;;;;;;16.05;9.85;;;;;;;14.15;77.78;99071.16;2250194;79;20889;-79
2021/06/27 00:56:13;;;;;;;10.15;9.08;;;;;;;14.13;77.80;99072.91;2250105;79;20974;-80
2021/06/27 00:59:15;;;;;;;10.72;9.63;;;;;;;14.11;77.80;99075.52;2250207;79;20932;-80
2021/06/27 01:02:16;;;;;;;11.57;10.48;;;;;;;14.11;77.77;99077.27;2250178;79;20972;-80
2021/06/27 01:05:16;;;;;;;12.03;10.60;;;;;;;14.07;77.65;99080.77;2250585;79;20913;-81
2021/06/27 01:08:17;;;;;;;10.55;9.55;;;;;;;14.06;77.79;99081.64;2250294;79;21335;-80
2021/06/27 01:11:18;;;;;;;13.83;10.72;;;;;;;14.04;77.72;99081.64;2250183;79;21340;-80
2021/06/27 01:14:19;;;;;;;52.43;21.40;;;;;;;14.00;77.68;99080.76;2250655;79;20960;-80
2021/06/27 01:17:20;;;;;;;112.22;33.28;;;;;;;14.21;81.80;99077.72;2251524;79;21359;-81
2021/06/27 01:20:21;;;;;;;65.80;24.63;;;;;;;15.63;81.64;99077.14;2252081;79;20916;-80
2021/06/27 01:23:22;;;;;;;27.17;14.07;;;;;;;16.68;78.96;99068.57;2273157;77;20997;-81
2021/06/27 01:26:23;;;;;;;16.37;11.05;;;;;;;17.44;76.52;99064.27;2283880;78;20938;-81
2021/06/27 01:29:24;;;;;;;13.40;10.35;;;;;;;17.99;74.39;99060.92;2284540;78;20950;-81
2021/06/27 01:32:25;;;;;;;20.55;12.95;;;;;;;18.33;72.90;99062.19;2284254;78;21029;-80
2021/06/27 01:35:26;;;;;;;17.30;10.38;;;;;;;18.63;70.92;99058.20;2284125;78;20966;-80
2021/06/27 01:38:27;;;;;;;10.53;9.43;;;;;;;18.63;70.92;99058.20;2284109;78;20917;-82
2021/06/27 01:41:28;;;;;;;10.45;9.45;;;;;;;18.79;69.55;99061.44;2284479;77;20971;-81
2021/06/27 01:44:29;;;;;;;9.50;8.50;;;;;;;18.72;68.62;99058.03;2284541;77;20887;-80
2021/06/27 01:47:30;;;;;;;9.73;8.18;;;;;;;18.81;68.46;99062.73;2284138;78;20938;-81
2021/06/27 01:50:31;;;;;;;12.65;9.60;;;;;;;18.96;67.83;99061.14;2284023;77;20969;-81
2021/06/27 01:53:32;;;;;;;9.63;8.63;;;;;;;19.00;67.25;99063.70;2284075;77;21266;-80
2021/06/27 01:56:33;;;;;;;9.63;8.40;;;;;;;19.14;66.39;99062.59;2284037;78;20971;-80
2021/06/27 01:59:34;;;;;;;8.95;7.95;;;;;;;19.25;65.75;99067.23;2284358;77;20967;-80
2021/06/27 02:02:35;;;;;;;10.95;8.08;;;;;;;19.33;65.20;99066.62;2279247;77;21034;-80
2021/06/27 02:05:36;;;;;;;8.90;7.75;;;;;;;19.30;64.98;99064.05;2280820;78;20907;-81
2021/06/27 02:08:37;;;;;;;9.98;8.58;;;;;;;19.28;64.92;99064.52;2283905;78;20965;-81
2021/06/27 02:11:38;;;;;;;116.62;38.98;;;;;;;19.32;64.55;99062.23;2283938;78;20931;-81
2021/06/27 02:14:39;;;;;;;104.45;33.28;;;;;;;19.30;63.92;99073.30;2284074;78;21286;-80
2021/06/27 02:17:39;;;;;;;70.72;24.47;;;;;;;19.30;63.92;99073.30;2283978;78;20906;-81
2021/06/27 02:20:40;;;;;;;75.35;24.82;;;;;;;19.29;63.59;99065.81;2283608;78;20911;-83
2021/06/27 02:23:41;;;;;;;56.40;20.23;;;;;;;19.30;63.37;99063.59;2260996;77;20960;-81
2021/06/27 02:26:42;;;;;;;23.70;11.78;;;;;;;19.31;63.22;99058.72;2251731;79;20943;-80
2021/06/27 02:29:43;;;;;;;12.50;9.20;;;;;;;19.32;62.94;99059.59;2252008;79;20928;-81
2021/06/27 02:32:44;;;;;;;11.57;9.05;;;;;;;19.32;62.67;99064.88;2251954;79;21028;-82
2021/06/27 02:35:45;;;;;;;13.18;9.05;;;;;;;19.31;62.49;99062.69;2251620;79;20904;-81
2021/06/27 02:38:46;;;;;;;12.55;9.65;;;;;;;19.32;62.30;99060.91;2251301;79;20957;-81
2021/06/27 02:41:47;;;;;;;9.70;8.70;;;;;;;19.32;62.11;99064.88;2250813;79;21076;-81
2021/06/27 02:44:48;;;;;;;8.95;8.10;;;;;;;19.32;62.14;99060.91;2251159;79;20963;-82
2021/06/27 02:47:49;;;;;;;10.32;7.55;;;;;;;19.32;62.00;99062.23;2250816;79;20928;-82
2021/06/27 02:50:50;;;;;;;11.33;7.85;;;;;;;19.31;61.98;99055.20;2251532;79;20967;-81
2021/06/27 02:53:50;;;;;;;9.63;8.55;;;;;;;19.31;61.94;99055.20;2251472;79;20944;-81
2021/06/27 02:56:52;;;;;;;11.10;8.75;;;;;;;19.32;62.04;99049.88;2251560;79;20936;-82
2021/06/27 02:59:53;;;;;;;10.48;9.18;;;;;;;19.37;61.66;99054.63;2251301;79;20915;-80
2021/06/27 03:02:53;;;;;;;9.33;8.50;;;;;;;19.41;61.52;99055.44;2251349;79;20959;-80
2021/06/27 03:05:54;;;;;;;10.20;8.58;;;;;;;19.43;61.26;99054.08;2251206;79;20944;-80
2021/06/27 03:08:55;;;;;;;14.07;11.83;;;;;;;19.44;61.09;99056.69;2251404;79;20972;-81
2021/06/27 03:11:56;;;;;;;25.27;22.55;;;;;;;19.40;61.00;99049.72;2251505;79;20937;-80
2021/06/27 03:14:57;;;;;;;19.92;16.77;;;;;;;19.41;60.55;99057.63;2251291;79;20948;-80
2021/06/27 03:17:58;;;;;;;18.25;14.43;;;;;;;19.41;60.56;99057.63;2250894;79;20936;-80
2021/06/27 03:20:59;;;;;;;16.90;13.70;;;;;;;19.44;60.46;99064.64;2251055;79;21020;-80
2021/06/27 03:24:00;;;;;;;21.95;18.07;;;;;;;19.46;60.37;99062.83;2274333;78;20989;-80
2021/06/27 03:27:01;;;;;;;15.23;13.60;;;;;;;19.49;60.26;99068.06;2283483;78;20910;-80
2021/06/27 03:30:02;;;;;;;27.82;20.48;;;;;;;19.55;60.18;99055.18;2283310;78;20930;-80
2021/06/27 03:33:03;;;;;;;17.67;15.88;;;;;;;19.56;59.84;99052.95;2276852;78;21334;-81
2021/06/27 03:36:03;;;;;;;17.55;15.28;;;;;;;19.60;59.46;99059.48;2250786;79;21361;-81
2021/06/27 03:39:12;;;;;;;12.78;10.30;;;;;;;19.44;58.64;99058.02;2258164;78;20926;-82
2021/06/27 03:42:10;;;;;;;14.90;9.68;;;;;;;19.10;58.94;99063.11;2282507;78;21283;-82
2021/06/27 03:45:12;;;;;;;10.13;8.60;;;;;;;18.82;59.49;99061.39;2282907;77;21262;-82
2021/06/27 03:48:13;;;;;;;534.55;212.57;;;;;;;18.64;59.91;99058.62;2283288;77;20953;-81
2021/06/27 03:51:14;;;;;;;161.28;50.45;;;;;;;18.53;60.43;99050.41;2283157;78;21029;-80
2021/06/27 03:54:15;;;;;;;14.60;9.13;;;;;;;18.46;60.71;99050.97;2282366;78;20906;-80
2021/06/27 03:57:16;;;;;;;11.55;8.23;;;;;;;18.00;60.93;99041.54;2282157;77;20918;-80
2021/06/27 04:00:17;;;;;;;12.93;9.98;;;;;;;17.57;62.02;99038.59;2282242;78;21334;-81
2021/06/27 04:03:18;;;;;;;12.55;9.55;;;;;;;17.27;63.33;99035.87;2282131;78;21038;-80
2021/06/27 04:06:22;;;;;;;16.23;11.65;;;;;;;17.13;64.49;99046.13;2282429;78;20914;-80
2021/06/27 04:09:23;;;;;;;14.18;8.95;;;;;;;17.07;65.65;99047.97;2282179;78;20934;-80
2021/06/27 04:12:24;;;;;;;15.85;11.03;;;;;;;17.08;65.65;99043.98;2282262;78;21278;-80
2021/06/27 04:15:25;;;;;;;10.35;9.33;;;;;;;17.14;66.33;99042.60;2282237;78;20890;-81
2021/06/27 04:18:25;;;;;;;11.33;10.00;;;;;;;17.18;66.77;99042.13;2282550;77;20891;-81
2021/06/27 04:21:26;;;;;;;12.00;10.18;;;;;;;17.30;67.31;99043.74;2282969;78;21306;-80
2021/06/27 04:24:28;;;;;;;13.18;11.12;;;;;;;17.43;67.33;99044.05;2290817;77;21391;-80
2021/06/27 04:27:29;;;;;;;13.62;10.53;;;;;;;17.63;67.65;99039.83;2292389;78;20948;-81
2021/06/27 04:30:33;;;;;;;13.58;12.20;;;;;;;17.79;67.62;99037.44;2292367;78;20947;-81
2021/06/27 04:33:34;;;;;;;16.25;14.55;;;;;;;17.95;67.74;99046.02;2292690;78;21031;-81
2021/06/27 04:36:35;;;;;;;20.32;15.25;;;;;;;18.20;67.96;99042.11;2292469;78;21339;-80
2021/06/27 04:39:36;;;;;;;14.35;12.68;;;;;;;18.44;67.67;99043.06;2292453;78;20945;-80
2021/06/27 04:42:37;;;;;;;17.75;15.75;;;;;;;18.60;67.38;99049.41;2292460;78;20893;-81
2021/06/27 04:45:39;;;;;;;25.88;16.48;;;;;;;18.80;67.25;99047.32;2292312;78;20957;-80
2021/06/27 04:48:40;;;;;;;19.57;16.80;;;;;;;18.93;66.86;99038.27;2292404;78;21272;-81
2021/06/27 04:51:41;;;;;;;19.82;16.30;;;;;;;19.03;66.89;99029.25;2292636;78;20943;-82
2021/06/27 04:54:42;;;;;;;17.30;15.60;;;;;;;19.17;66.90;99037.40;2292413;78;20935;-80
2021/06/27 04:57:43;;;;;;;21.68;19.67;;;;;;;19.32;66.94;99037.97;2292377;78;20956;-80
2021/06/27 05:00:45;;;;;;;20.25;18.25;;;;;;;19.47;66.74;99030.16;2292349;78;20972;-80
2021/06/27 05:03:46;;;;;;;19.90;17.03;;;;;;;19.59;66.45;99035.23;2292326;78;21432;-80
2021/06/27 05:06:46;;;;;;;18.05;16.27;;;;;;;19.66;66.49;99026.70;2292134;78;20896;-82
2021/06/27 05:09:49;;;;;;;21.90;16.07;;;;;;;19.78;66.27;99030.85;2292454;78;20932;-81
2021/06/27 05:12:50;;;;;;;22.15;18.12;;;;;;;19.92;65.97;99036.70;2292313;78;21329;-81
2021/06/27 05:15:51;;;;;;;20.95;17.65;;;;;;;20.07;65.78;99036.39;2292417;78;20935;-82
2021/06/27 05:18:52;;;;;;;27.07;18.10;;;;;;;20.21;65.38;99038.71;2292563;78;20914;-82
2021/06/27 05:21:53;;;;;;;19.82;17.25;;;;;;;20.32;65.10;99040.65;2292466;78;21356;-82
2021/06/27 05:24:54;;;;;;;19.62;17.75;;;;;;;20.40;64.80;99043.14;2291781;78;20896;-81
2021/06/27 05:27:55;;;;;;;19.05;17.35;;;;;;;20.50;64.96;99030.94;2292521;78;20940;-82
2021/06/27 05:30:56;;;;;;;20.77;16.87;;;;;;;20.65;64.38;99034.98;2292562;78;20919;-82
2021/06/27 05:33:57;;;;;;;19.85;17.75;;;;;;;20.73;64.21;99035.66;2292411;78;21362;-81
2021/06/27 05:36:58;;;;;;;19.48;17.57;;;;;;;20.78;64.25;99036.41;2292439;78;20881;-82
2021/06/27 05:39:59;;;;;;;18.25;15.65;;;;;;;20.91;64.26;99035.66;2292519;78;21295;-81
2021/06/27 05:43:00;;;;;;;18.77;16.87;;;;;;;21.09;63.83;99036.94;2292517;78;20948;-81
2021/06/27 05:46:02;;;;;;;18.55;16.73;;;;;;;21.18;64.00;99030.05;2291458;78;21343;-81
2021/06/27 05:49:05;;;;;;;19.87;17.87;;;;;;;21.33;63.55;99032.30;2291619;78;21000;-80
2021/06/27 05:52:05;;;;;;;18.20;16.42;;;;;;;21.55;63.20;99033.87;2291459;77;21027;-81
2021/06/27 05:55:06;;;;;;;18.92;17.12;;;;;;;21.68;62.57;99037.07;2291784;78;20951;-81
2021/06/27 05:58:07;;;;;;;18.35;16.65;;;;;;;21.88;62.47;99039.99;2291810;78;20955;-80
2021/06/27 06:01:08;;;;;;;17.37;15.78;;;;;;;21.94;61.34;99043.80;2292097;78;20924;-80
2021/06/27 06:04:10;;;;;;;17.70;14.90;;;;;;;22.04;61.02;99051.92;2292189;77;21351;-81
2021/06/27 06:07:11;;;;;;;18.73;15.90;;;;;;;22.12;60.88;99053.88;2292290;78;20960;-81
2021/06/27 06:10:12;;;;;;;17.52;15.75;;;;;;;22.27;60.74;99052.98;2292397;78;21008;-81
2021/06/27 06:13:13;;;;;;;16.57;15.03;;;;;;;22.40;60.69;99057.86;2292398;78;20873;-82
2021/06/27 06:16:13;;;;;;;17.20;15.60;;;;;;;22.60;60.31;99048.37;2292332;78;20909;-81
2021/06/27 06:19:17;;;;;;;16.57;15.00;;;;;;;22.75;59.30;99054.05;2292523;78;20905;-81
2021/06/27 06:22:17;;;;;;;17.20;15.43;;;;;;;22.72;59.37;99055.95;2292089;78;20960;-80
2021/06/27 06:25:18;;;;;;;15.93;14.25;;;;;;;22.90;58.28;99055.81;2283170;78;21310;-81
2021/06/27 06:28:19;;;;;;;15.63;14.25;;;;;;;23.02;58.12;99057.58;2282524;78;20875;-81
2021/06/27 06:31:20;;;;;;;14.83;13.43;;;;;;;23.11;58.00;99053.27;2282623;78;20930;-81
2021/06/27 06:34:21;;;;;;;14.58;13.25;;;;;;;23.36;57.33;99055.04;2282273;78;20969;-80
2021/06/27 06:37:22;;;;;;;14.13;12.73;;;;;;;23.43;56.35;99060.12;2282419;78;20922;-82
2021/06/27 06:40:23;;;;;;;14.47;12.90;;;;;;;23.59;55.97;99056.45;2282340;78;20953;-80
2021/06/27 06:43:23;;;;;;;14.70;13.03;;;;;;;23.67;55.66;99058.83;2282641;78;20942;-81
2021/06/27 06:46:25;;;;;;;13.22;12.03;;;;;;;23.87;54.54;99060.73;2282540;78;20903;-81
2021/06/27 06:49:25;;;;;;;12.75;11.45;;;;;;;24.03;54.85;99064.54;2282428;78;20990;-82
2021/06/27 06:52:26;;;;;;;11.73;10.63;;;;;;;24.14;53.85;99055.65;2282483;78;20925;-82
2021/06/27 06:55:28;;;;;;;13.15;11.35;;;;;;;24.09;52.96;99054.50;2282661;78;20954;-82
2021/06/27 06:58:29;;;;;;;10.58;9.65;;;;;;;24.11;52.61;99048.64;2282422;78;20879;-82
2021/06/27 07:01:30;;;;;;;8.85;8.05;;;;;;;24.23;52.74;99054.41;2282512;77;20966;-81
2021/06/27 07:04:32;;;;;;;9.45;8.65;;;;;;;24.45;51.60;99052.67;2282377;77;21041;-82
2021/06/27 07:07:32;;;;;;;8.98;8.08;;;;;;;24.74;51.04;99040.31;2282521;77;20962;-81
2021/06/27 07:10:33;;;;;;;9.30;8.18;;;;;;;24.86;49.36;99042.06;2282333;77;20989;-82
2021/06/27 07:13:34;;;;;;;8.18;7.35;;;;;;;24.98;49.76;99046.91;2282494;77;20930;-82
2021/06/27 07:16:35;;;;;;;7.17;6.53;;;;;;;25.32;47.48;99047.19;2282412;77;20903;-82
2021/06/27 07:19:36;;;;;;;6.47;5.87;;;;;;;25.35;46.53;99047.05;2282645;77;20906;-81
2021/06/27 07:22:37;;;;;;;9.78;7.72;;;;;;;25.47;46.66;99045.63;2282444;77;21334;-82
2021/06/27 07:25:38;;;;;;;8.25;7.20;;;;;;;25.68;45.95;99046.00;2251011;77;20979;-81
2021/06/27 07:28:39;;;;;;;8.43;7.70;;;;;;;25.74;45.95;99044.85;2250147;79;20917;-81
2021/06/27 07:31:41;;;;;;;8.90;6.67;;;;;;;25.91;46.42;99046.73;2250123;79;20969;-81
2021/06/27 07:34:42;;;;;;;8.93;8.13;;;;;;;26.02;44.50;99049.33;2250092;79;21347;-82
2021/06/27 07:37:43;;;;;;;8.30;7.60;;;;;;;26.02;45.72;99047.99;2250360;79;21299;-82
2021/06/27 07:40:44;;;;;;;7.90;7.20;;;;;;;26.31;45.55;99053.75;2250148;79;20900;-82
2021/06/27 07:43:48;;;;;;;7.20;5.75;;;;;;;26.57;44.79;99046.66;2250067;79;20908;-83
2021/06/27 07:46:47;;;;;;;7.20;5.90;;;;;;;26.62;43.52;99049.11;2250296;77;20949;-80
2021/06/27 07:49:48;;;;;;;6.95;6.28;;;;;;;26.71;42.79;99054.48;2250660;79;20912;-81
2021/06/27 07:52:49;;;;;;;9.10;5.95;;;;;;;26.75;43.21;99053.38;2250436;79;20880;-81
2021/06/27 07:55:50;;;;;;;6.62;6.12;;;;;;;27.08;41.72;99054.39;2250772;79;20900;-81
2021/06/27 07:58:51;;;;;;;9.03;7.10;;;;;;;27.00;41.16;99061.09;2250477;79;20885;-82
2021/06/27 08:01:52;;;;;;;7.25;6.65;;;;;;;27.31;40.25;99053.17;2250397;79;20939;-81
2021/06/27 08:04:54;;;;;;;7.15;6.55;;;;;;;27.27;40.28;99051.61;2250358;79;21031;-81
2021/06/27 08:07:55;;;;;;;8.03;6.58;;;;;;;27.39;40.85;99052.30;2250563;79;20994;-81
2021/06/27 08:10:55;;;;;;;7.25;6.67;;;;;;;27.76;39.70;99052.58;2250503;79;20929;-81
2021/06/27 08:13:56;;;;;;;7.42;6.70;;;;;;;28.05;39.37;99045.59;2250452;79;21288;-81
2021/06/27 08:16:57;;;;;;;7.30;6.70;;;;;;;28.25;39.70;99045.84;2250391;79;20977;-82
2021/06/27 08:19:58;;;;;;;7.00;6.33;;;;;;;28.12;38.19;99044.30;2250349;79;20916;-82
2021/06/27 08:22:59;;;;;;;8.30;7.50;;;;;;;27.68;39.80;99041.37;2250792;77;20909;-82
2021/06/27 08:26:00;;;;;;;8.70;7.45;;;;;;;27.25;40.78;99046.33;2250103;79;21304;-81
2021/06/27 08:29:01;;;;;;;10.28;8.70;;;;;;;26.87;41.14;99050.94;2236275;80;20901;-82
2021/06/27 08:32:02;;;;;;;10.63;8.28;;;;;;;26.39;40.63;99050.25;2250142;79;20905;-81
2021/06/27 08:35:03;;;;;;;8.93;8.18;;;;;;;26.08;41.29;99049.98;2249961;79;21008;-82
2021/06/27 08:38:04;;;;;;;7.97;7.35;;;;;;;26.56;41.34;99040.91;2236403;80;20893;-81
2021/06/27 08:41:05;;;;;;;8.08;7.20;;;;;;;27.16;40.62;99046.81;2236541;80;20957;-82
2021/06/27 08:44:06;;;;;;;7.00;6.33;;;;;;;27.32;40.49;99039.30;2250130;79;20912;-82
2021/06/27 08:47:07;;;;;;;7.78;7.05;;;;;;;27.32;39.30;99041.98;2236547;80;20965;-81
2021/06/27 08:50:08;;;;;;;7.30;6.45;;;;;;;26.96;39.76;99042.94;2250170;79;20908;-81
2021/06/27 08:53:09;;;;;;;7.67;7.08;;;;;;;26.78;40.31;99047.86;2236516;80;20936;-82
2021/06/27 08:56:10;;;;;;;8.00;7.20;;;;;;;26.73;39.66;99052.59;2250124;79;20940;-82
2021/06/27 08:59:11;;;;;;;7.55;6.90;;;;;;;26.80;40.06;99051.33;2236544;80;20944;-83
2021/06/27 09:02:12;;;;;;;8.13;7.30;;;;;;;27.18;42.04;99046.26;2236388;80;20941;-83
2021/06/27 09:05:13;;;;;;;7.42;6.78;;;;;;;27.65;39.42;99048.24;2249403;79;21155;-82
2021/06/27 09:08:14;;;;;;;7.55;6.95;;;;;;;27.27;39.44;99049.80;2236551;80;20905;-83
2021/06/27 09:11:15;;;;;;;6.95;6.35;;;;;;;27.38;40.36;99045.20;2250101;79;21027;-81
2021/06/27 09:14:16;;;;;;;7.70;6.30;;;;;;;27.85;38.49;99032.42;2249528;79;20913;-82
2021/06/27 09:17:17;;;;;;;6.67;6.08;;;;;;;27.87;38.01;99030.52;2236291;80;20937;-81
2021/06/27 09:20:18;;;;;;;9.20;6.50;;;;;;;27.61;36.93;99033.27;2249871;79;20935;-80
2021/06/27 09:23:20;;;;;;;6.28;5.67;;;;;;;27.49;38.02;99033.43;2237637;77;20924;-80
2021/06/27 09:26:21;;;;;;;7.13;5.63;;;;;;;27.66;36.75;99028.52;2282673;78;21381;-80
2021/06/27 09:29:22;;;;;;;7.17;6.35;;;;;;;27.78;37.74;99028.36;2282389;78;20977;-80
2021/06/27 09:32:23;;;;;;;6.47;5.97;;;;;;;28.13;38.23;99025.03;2282544;78;20934;-81
2021/06/27 09:35:24;;;;;;;7.97;5.75;;;;;;;28.56;37.35;99027.48;2282425;77;20958;-80
2021/06/27 09:38:25;;;;;;;6.47;5.87;;;;;;;28.45;37.26;99017.84;2282940;77;20915;-80
2021/06/27 09:41:31;;;;;;;6.62;5.95;;;;;;;29.01;37.38;99017.22;2282270;77;20938;-79
2021/06/27 09:44:32;;;;;;;7.70;6.05;;;;;;;29.65;35.11;99022.70;2282375;77;21255;-80
2021/06/27 09:47:33;;;;;;;6.55;5.92;;;;;;;29.86;35.26;99017.78;2282431;78;20949;-80
2021/06/27 09:50:34;;;;;;;6.05;5.45;;;;;;;30.10;33.90;99023.44;2282425;78;20969;-81
2021/06/27 09:53:35;;;;;;;5.78;5.12;;;;;;;30.31;33.36;99019.81;2282771;77;21337;-80
2021/06/27 09:56:36;;;;;;;7.65;5.33;;;;;;;29.82;34.29;99027.49;2282536;78;20937;-80
2021/06/27 09:59:37;;;;;;;5.70;5.30;;;;;;;29.45;35.17;99017.68;2282038;77;20946;-80
2021/06/27 10:02:38;;;;;;;8.10;5.28;;;;;;;29.27;35.25;99017.45;2282487;77;20958;-81
2021/06/27 10:05:39;;;;;;;5.67;5.20;;;;;;;29.09;35.95;99024.34;2282409;78;20974;-81
2021/06/27 10:08:40;;;;;;;6.05;5.55;;;;;;;28.91;35.96;99022.77;2282503;78;20875;-80
2021/06/27 10:11:41;;;;;;;5.95;5.37;;;;;;;28.98;35.95;99028.63;2283046;78;20930;-80
2021/06/27 10:14:49;;;;;;;6.17;5.05;;;;;;;28.86;35.03;99024.86;2282349;78;20970;-81
2021/06/27 10:17:46;;;;;;;8.00;5.28;;;;;;;28.69;36.06;99020.94;2281706;78;20949;-80
2021/06/27 10:20:47;;;;;;;6.37;5.83;;;;;;;28.42;36.24;99017.55;2282668;77;20958;-81
2021/06/27 10:23:48;;;;;;;7.10;5.72;;;;;;;28.26;36.72;99022.07;2283553;77;20962;-80
2021/06/27 10:26:49;;;;;;;6.65;5.50;;;;;;;28.23;37.27;99016.41;2292355;78;20869;-80
2021/06/27 10:29:50;;;;;;;6.33;5.62;;;;;;;28.07;36.55;99026.72;2292421;78;21019;-81
2021/06/27 10:32:51;;;;;;;6.40;5.90;;;;;;;27.65;37.96;99029.47;2292229;78;21244;-80
2021/06/27 10:35:52;;;;;;;6.28;5.78;;;;;;;27.23;39.15;99033.48;2292141;78;21007;-80
2021/06/27 10:38:54;;;;;;;6.08;5.58;;;;;;;26.80;40.25;99036.60;2291810;78;20992;-80
2021/06/27 10:41:55;;;;;;;8.00;5.30;;;;;;;26.81;40.58;99037.00;2292242;78;20925;-80
2021/06/27 10:44:57;;;;;;;6.47;5.87;;;;;;;26.69;41.04;99037.15;2292205;78;20949;-80
2021/06/27 10:47:59;;;;;;;6.60;5.95;;;;;;;26.83;39.74;99033.30;2292204;78;20900;-80
2021/06/27 10:51:00;;;;;;;7.75;5.80;;;;;;;27.20;38.88;99030.97;2292302;78;20924;-81
2021/06/27 10:54:01;;;;;;;7.47;5.72;;;;;;;27.09;39.17;99029.80;2292269;78;20901;-80
2021/06/27 10:57:04;;;;;;;6.42;5.92;;;;;;;26.78;40.19;99025.10;2292398;78;20869;-80
2021/06/27 11:00:05;;;;;;;6.40;5.80;;;;;;;26.80;39.65;99019.20;2292410;78;20908;-81
2021/06/27 11:03:08;;;;;;;6.10;5.60;;;;;;;26.72;40.05;99014.23;2291857;78;21659;-81
2021/06/27 11:06:09;;;;;;;6.85;6.10;;;;;;;26.65;40.05;99018.17;2292025;78;21379;-80
2021/06/27 11:09:09;;;;;;;6.28;5.65;;;;;;;27.29;38.98;99015.73;2292302;78;21268;-80
2021/06/27 11:12:10;;;;;;;6.20;5.60;;;;;;;27.77;38.32;99015.42;2292142;78;20992;-80
2021/06/27 11:15:11;;;;;;;8.28;5.80;;;;;;;27.37;39.20;99018.01;2292520;78;20917;-81
2021/06/27 11:18:12;;;;;;;6.85;6.25;;;;;;;27.15;39.87;99006.70;2292970;78;21269;-82
2021/06/27 11:21:13;;;;;;;6.83;6.15;;;;;;;26.93;39.37;99005.59;2293294;78;20904;-81
2021/06/27 11:24:14;;;;;;;6.60;6.00;;;;;;;26.52;40.84;99011.23;2290252;78;21013;-82
2021/06/27 11:27:16;;;;;;;6.50;5.90;;;;;;;26.26;40.57;99015.64;2282748;78;21349;-81
2021/06/27 11:30:17;;;;;;;7.37;5.87;;;;;;;25.94;41.86;99014.03;2282358;77;20966;-81
2021/06/27 11:33:19;;;;;;;8.60;6.65;;;;;;;25.96;42.11;99016.16;2282458;78;20894;-81
2021/06/27 11:36:20;;;;;;;6.50;5.93;;;;;;;26.19;41.81;99012.88;2282634;78;21054;-81
2021/06/27 11:39:21;;;;;;;7.22;5.90;;;;;;;26.68;40.68;99007.30;2282377;78;20947;-81
2021/06/27 11:42:23;;;;;;;7.55;6.33;;;;;;;27.31;39.36;99008.09;2282465;77;21305;-81
2021/06/27 11:45:23;;;;;;;8.75;5.80;;;;;;;27.59;38.03;99002.48;2282532;77;20989;-81
2021/06/27 11:48:24;;;;;;;5.97;5.47;;;;;;;28.05;36.77;98995.09;2283277;77;21254;-84
2021/06/27 11:51:25;;;;;;;6.62;5.37;;;;;;;28.12;37.23;98993.31;2282284;78;20962;-80
2021/06/27 11:54:26;;;;;;;5.85;5.25;;;;;;;28.47;36.45;98985.92;2282434;78;20941;-80
2021/06/27 11:57:27;;;;;;;4.42;4.12;;;;;;;28.78;35.51;98976.94;2282278;77;20910;-79
2021/06/27 12:00:28;;;;;;;4.22;3.83;;;;;;;29.10;34.35;98970.11;2282249;77;20942;-80
2021/06/27 12:03:29;;;;;;;4.50;4.20;;;;;;;29.41;33.98;98966.36;2282218;77;21298;-81
2021/06/27 12:06:30;;;;;;;5.20;4.50;;;;;;;29.73;33.17;98962.55;2282269;78;20958;-81
2021/06/27 12:09:31;;;;;;;4.90;4.40;;;;;;;29.58;33.29;98968.05;2282542;77;20934;-80
2021/06/27 12:12:32;;;;;;;4.53;4.15;;;;;;;29.67;33.39;98961.60;2282370;77;20966;-80
2021/06/27 12:15:33;;;;;;;5.25;4.95;;;;;;;29.63;34.17;98968.14;2282407;77;20904;-82
2021/06/27 12:18:35;;;;;;;5.58;5.08;;;;;;;29.57;34.68;98969.02;2282460;77;21002;-82
2021/06/27 12:21:36;;;;;;;5.17;4.78;;;;;;;29.43;35.83;98965.82;2282449;78;21319;-81
2021/06/27 12:24:37;;;;;;;6.15;4.78;;;;;;;29.75;36.09;98960.62;2274795;77;20995;-81
2021/06/27 12:27:37;;;;;;;4.50;4.20;;;;;;;30.23;34.45;98961.57;2250137;79;20953;-82
2021/06/27 12:30:38;;;;;;;4.92;4.53;;;;;;;30.48;32.26;98955.44;2250046;79;20955;-80
2021/06/27 12:33:39;;;;;;;6.45;4.62;;;;;;;30.53;32.01;98961.38;2249945;79;20944;-80
2021/06/27 12:36:46;;;;;;;5.15;4.70;;;;;;;30.09;32.73;98960.66;2250128;79;21444;-81
2021/06/27 12:39:43;;;;;;;4.35;4.05;;;;;;;30.10;31.80;98968.25;2249506;79;20869;-80
2021/06/27 12:42:44;;;;;;;4.58;4.17;;;;;;;29.88;31.52;98964.73;2250161;79;20901;-81
2021/06/27 12:45:45;;;;;;;7.03;4.37;;;;;;;29.90;30.93;98965.97;2249872;79;20921;-80
2021/06/27 12:48:46;;;;;;;6.30;4.53;;;;;;;29.95;31.55;98970.09;2250268;79;20936;-81
2021/06/27 12:51:47;;;;;;;6.90;5.45;;;;;;;29.59;32.32;98966.61;2250445;79;20944;-80
2021/06/27 12:54:48;;;;;;;5.85;5.35;;;;;;;29.05;32.90;98973.08;2250548;79;20953;-80
2021/06/27 12:57:48;;;;;;;7.05;5.45;;;;;;;28.47;33.71;98979.21;2250455;79;20885;-82
2021/06/27 13:00:49;;;;;;;5.35;4.90;;;;;;;28.09;34.40;98972.49;2250261;79;20936;-81
2021/06/27 13:03:50;;;;;;;7.05;5.90;;;;;;;27.78;35.29;98970.69;2250314;79;21124;-81
2021/06/27 13:06:51;;;;;;;7.17;6.58;;;;;;;27.47;37.31;98993.78;2250423;79;21001;-81
2021/06/27 13:09:52;;;;;;;7.12;6.40;;;;;;;27.14;38.56;98989.77;2251173;79;21288;-79
2021/06/27 13:13:03;;;;;;;7.35;6.75;;;;;;;27.37;39.27;98984.98;2250107;79;21284;-80
2021/06/27 13:16:04;;;;;;;12.98;7.05;;;;;;;27.93;38.34;98985.92;2250112;79;20904;-80
2021/06/27 13:19:05;;;;;;;8.15;6.97;;;;;;;28.20;36.99;98976.28;2250440;79;21316;-82
2021/06/27 13:22:06;;;;;;;7.60;6.90;;;;;;;28.35;36.62;98977.72;2250984;79;20901;-82
2021/06/27 13:25:07;;;;;;;8.00;7.40;;;;;;;28.10;37.01;98968.38;2264798;78;21291;-80
2021/06/27 13:28:08;;;;;;;12.60;10.25;;;;;;;27.97;37.90;98963.80;2293310;78;20967;-81
2021/06/27 13:31:09;;;;;;;51.55;36.23;;;;;;;27.79;38.06;98961.22;2293381;78;20924;-80
2021/06/27 13:34:10;;;;;;;13.08;10.68;;;;;;;27.70;38.70;98953.66;2293128;78;20927;-82
2021/06/27 13:37:11;;;;;;;12.35;11.10;;;;;;;28.20;37.59;98945.91;2292908;78;20960;-80
2021/06/27 13:40:12;;;;;;;7.53;6.92;;;;;;;28.07;37.67;98952.94;2292944;78;20904;-79
2021/06/27 13:43:12;;;;;;;7.28;6.45;;;;;;;28.02;37.03;98949.65;2292472;78;20939;-79
2021/06/27 13:46:13;;;;;;;8.58;7.87;;;;;;;27.86;37.62;98953.21;2292341;78;20912;-79
2021/06/27 13:49:16;;;;;;;7.33;6.70;;;;;;;27.95;37.34;98951.82;2292044;78;20988;-78
2021/06/27 13:52:16;;;;;;;7.58;6.37;;;;;;;28.22;37.11;98948.02;2292232;78;20909;-79
2021/06/27 13:55:17;;;;;;;7.40;6.70;;;;;;;28.71;36.79;98950.06;2292252;78;20941;-78
2021/06/27 13:58:18;;;;;;;6.85;6.35;;;;;;;28.87;36.16;98945.99;2292260;78;20901;-80
2021/06/27 14:01:20;;;;;;;6.53;6.00;;;;;;;28.70;34.89;98948.81;2292237;78;20951;-79
2021/06/27 14:04:21;;;;;;;6.78;6.12;;;;;;;28.58;35.62;98950.86;2292378;78;20927;-78